createdAt,value
2018-12-02T00:00:30.882Z,4.10
2018-12-02T00:03:13.381Z,3.90
2018-12-02T00:05:40.972Z,3.70
2018-12-02T00:08:08.579Z,4.00
2018-12-02T00:10:36.498Z,3.70
2018-12-02T00:13:04.310Z,3.80
2018-12-02T00:15:31.861Z,4.00
2018-12-02T00:18:00.332Z,3.83
2018-12-02T00:20:28.035Z,3.80
2018-12-02T00:22:55.609Z,3.90
2018-12-02T00:25:23.075Z,3.97
2018-12-02T00:27:56.030Z,4.60
2018-12-02T00:30:25.701Z,4.60
2018-12-02T00:32:53.252Z,4.40
2018-12-02T00:35:21.039Z,5.10
2018-12-02T00:37:50.387Z,4.43
2018-12-02T00:40:19.807Z,4.17
2018-12-02T00:42:48.508Z,3.87
2018-12-02T00:45:16.897Z,3.70
2018-12-02T00:47:44.407Z,3.93
2018-12-02T00:50:13.140Z,3.50
2018-12-02T00:52:40.952Z,3.80
2018-12-02T00:55:12.571Z,3.33
2018-12-02T00:57:40.164Z,3.60
2018-12-02T01:00:10.029Z,3.70
2018-12-02T01:02:37.649Z,3.57
2018-12-02T01:05:09.403Z,3.87
2018-12-02T01:07:36.946Z,3.70
2018-12-02T01:10:06.319Z,3.93
2018-12-02T01:12:33.907Z,3.47
2018-12-02T01:15:01.386Z,4.10
2018-12-02T01:17:28.850Z,3.73
2018-12-02T01:19:56.557Z,4.33
2018-12-02T01:22:24.076Z,4.00
2018-12-02T01:24:51.571Z,4.03
2018-12-02T01:27:19.238Z,4.57
2018-12-02T01:29:46.724Z,4.23
2018-12-02T01:32:14.189Z,4.57
2018-12-02T01:34:41.916Z,4.00
2018-12-02T01:37:09.599Z,4.07
2018-12-02T01:39:37.083Z,5.10
2018-12-02T01:42:04.794Z,4.53
2018-12-02T01:44:32.288Z,4.37
2018-12-02T01:46:59.768Z,4.17
2018-12-02T01:49:27.484Z,4.57
2018-12-02T01:51:55.001Z,3.93
2018-12-02T01:54:22.479Z,4.13
2018-12-02T01:56:50.432Z,4.23
2018-12-02T01:59:17.899Z,4.13
2018-12-02T02:01:45.436Z,4.10
2018-12-02T02:04:13.223Z,4.00
2018-12-02T02:06:40.696Z,4.30
2018-12-02T02:09:08.957Z,4.53
2018-12-02T02:11:37.341Z,4.37
2018-12-02T02:14:05.217Z,4.60
2018-12-02T02:16:32.876Z,3.70
2018-12-02T02:19:00.826Z,4.63
2018-12-02T02:21:28.326Z,3.97
2018-12-02T02:23:55.827Z,4.20
2018-12-02T02:26:23.427Z,4.20
2018-12-02T02:28:50.893Z,3.73
2018-12-02T02:31:18.399Z,3.97
2018-12-02T02:33:46.191Z,4.00
2018-12-02T02:36:13.710Z,3.97
2018-12-02T02:38:41.193Z,3.53
2018-12-02T02:41:08.849Z,3.30
2018-12-02T02:43:36.301Z,3.17
2018-12-02T02:46:03.852Z,3.23
2018-12-02T02:48:31.549Z,2.93
2018-12-02T02:50:59.072Z,3.17
2018-12-02T02:53:26.572Z,3.57
2018-12-02T02:55:54.382Z,3.43
2018-12-02T02:58:21.840Z,3.10
2018-12-02T03:00:49.361Z,3.30
2018-12-02T03:03:16.941Z,3.00
2018-12-02T03:05:44.453Z,3.07
2018-12-02T03:08:11.921Z,3.60
2018-12-02T03:10:39.558Z,3.20
2018-12-02T03:13:07.000Z,3.07
2018-12-02T03:15:34.540Z,3.20
2018-12-02T03:18:02.207Z,3.67
2018-12-02T03:20:29.704Z,3.60
2018-12-02T03:22:57.210Z,3.60
2018-12-02T03:25:25.847Z,4.20
2018-12-02T03:27:53.530Z,3.50
2018-12-02T03:30:21.955Z,3.57
2018-12-02T03:32:49.623Z,3.53
2018-12-02T03:35:20.899Z,3.73
2018-12-02T03:37:48.442Z,3.83
2018-12-02T03:40:19.960Z,3.50
2018-12-02T03:42:47.693Z,3.63
2018-12-02T03:45:16.207Z,3.17
2018-12-02T03:47:43.917Z,3.63
2018-12-02T03:50:17.555Z,3.30
2018-12-02T03:52:40.991Z,3.30
2018-12-02T03:55:09.080Z,3.23
2018-12-02T03:57:36.735Z,3.10
2018-12-02T04:00:12.647Z,3.33
2018-12-02T04:02:40.238Z,3.70
2018-12-02T04:05:08.325Z,3.50
2018-12-02T04:07:36.090Z,3.30
2018-12-02T04:10:04.615Z,3.20
2018-12-02T04:12:32.107Z,3.13
2018-12-02T04:14:59.751Z,3.73
2018-12-02T04:17:27.259Z,3.40
2018-12-02T04:19:54.761Z,3.30
2018-12-02T04:22:22.525Z,3.43
2018-12-02T04:24:50.077Z,4.00
2018-12-02T04:27:17.556Z,3.60
2018-12-02T04:29:45.208Z,3.80
2018-12-02T04:32:12.698Z,3.80
2018-12-02T04:34:40.255Z,3.37
2018-12-02T04:37:08.027Z,3.30
2018-12-02T04:39:35.460Z,3.70
2018-12-02T04:42:02.977Z,3.10
2018-12-02T04:44:30.637Z,3.30
2018-12-02T04:46:59.198Z,3.07
2018-12-02T04:49:26.664Z,3.50
2018-12-02T04:51:54.296Z,3.13
2018-12-02T04:54:21.769Z,3.30
2018-12-02T04:56:49.282Z,3.20
2018-12-02T04:59:17.010Z,3.70
2018-12-02T05:01:44.487Z,3.03
2018-12-02T05:04:12.033Z,3.20
2018-12-02T05:06:39.839Z,2.90
2018-12-02T05:09:07.411Z,2.97
2018-12-02T05:11:34.902Z,2.90
2018-12-02T05:14:02.719Z,3.30
2018-12-02T05:16:30.230Z,3.50
2018-12-02T05:18:57.734Z,2.87
2018-12-02T05:21:25.355Z,3.50
2018-12-02T05:23:53.227Z,3.20
2018-12-02T05:26:20.673Z,3.53
2018-12-02T05:28:48.265Z,3.23
2018-12-02T05:31:15.749Z,3.80
2018-12-02T05:33:43.202Z,4.07
2018-12-02T05:36:10.839Z,3.80
2018-12-02T05:38:38.317Z,3.80
2018-12-02T05:41:05.853Z,4.90
2018-12-02T05:43:33.525Z,4.37
2018-12-02T05:46:00.993Z,3.97
2018-12-02T05:48:28.476Z,3.90
2018-12-02T05:50:56.184Z,4.07
2018-12-02T05:53:23.674Z,3.70
2018-12-02T05:55:51.141Z,3.67
2018-12-02T05:58:18.806Z,3.57
2018-12-02T06:00:46.315Z,3.50
2018-12-02T06:03:13.819Z,3.70
2018-12-02T06:05:41.537Z,3.17
2018-12-02T06:08:09.066Z,3.30
2018-12-02T06:10:36.529Z,3.30
2018-12-02T06:13:04.369Z,3.60
2018-12-02T06:15:31.859Z,3.17
2018-12-02T06:17:59.354Z,2.90
2018-12-02T06:20:27.039Z,3.17
2018-12-02T06:22:56.169Z,3.73
2018-12-02T06:25:23.751Z,3.50
2018-12-02T06:27:51.506Z,4.03
2018-12-02T06:30:20.786Z,3.50
2018-12-02T06:32:49.470Z,4.20
2018-12-02T06:35:17.085Z,4.80
2018-12-02T06:37:44.576Z,3.87
2018-12-02T06:40:14.083Z,4.10
2018-12-02T06:42:41.695Z,4.07
2018-12-02T06:45:10.059Z,3.93
2018-12-02T06:47:37.587Z,4.10
2018-12-02T06:50:08.782Z,4.53
2018-12-02T06:52:36.286Z,4.90
2018-12-02T06:55:10.020Z,4.30
2018-12-02T06:57:40.791Z,4.10
2018-12-02T07:03:24.082Z,4.80
2018-12-02T07:05:51.552Z,4.90
2018-12-02T07:08:19.033Z,4.80
2018-12-02T07:10:46.670Z,4.77
2018-12-02T07:13:14.174Z,4.90
2018-12-02T07:15:41.746Z,4.50
2018-12-02T07:18:15.044Z,4.80
2018-12-02T07:20:42.514Z,4.97
2018-12-02T07:23:10.649Z,4.93
2018-12-02T07:25:42.623Z,5.20
2018-12-02T07:28:10.104Z,4.87
2018-12-02T07:30:37.639Z,4.00
2018-12-02T07:33:05.877Z,3.73
2018-12-02T07:35:33.373Z,4.50
2018-12-02T07:38:04.106Z,4.50
2018-12-02T07:40:34.094Z,3.80
2018-12-02T07:43:02.293Z,4.60
2018-12-02T07:45:29.764Z,4.03
2018-12-02T07:47:57.419Z,3.80
2018-12-02T07:50:24.983Z,4.00
2018-12-02T07:52:52.454Z,3.50
2018-12-02T07:55:20.073Z,3.93
2018-12-02T07:57:47.822Z,4.47
2018-12-02T08:00:15.811Z,4.23
2018-12-02T08:02:43.558Z,4.27
2018-12-02T08:05:14.992Z,3.83
2018-12-02T08:07:42.941Z,4.10
2018-12-02T08:10:13.861Z,3.90
2018-12-02T08:12:41.336Z,3.50
2018-12-02T08:15:10.251Z,3.63
2018-12-02T08:17:38.115Z,4.20
2018-12-02T08:20:09.658Z,3.97
2018-12-02T08:22:37.234Z,3.67
2018-12-02T08:25:05.713Z,4.67
2018-12-02T08:27:33.155Z,4.10
2018-12-02T08:30:00.691Z,4.00
2018-12-02T08:32:28.320Z,4.43
2018-12-02T08:34:55.850Z,3.80
2018-12-02T08:37:23.300Z,4.30
2018-12-02T08:39:50.906Z,3.70
2018-12-02T08:42:18.406Z,4.00
2018-12-02T08:44:45.853Z,3.57
2018-12-02T08:47:13.530Z,4.17
2018-12-02T08:49:41.018Z,3.90
2018-12-02T08:52:08.569Z,3.87
2018-12-02T08:54:36.303Z,4.03
2018-12-02T08:57:03.770Z,3.77
2018-12-02T08:59:31.311Z,3.43
2018-12-02T09:01:58.976Z,3.47
2018-12-02T09:04:26.520Z,3.43
2018-12-02T09:06:54.047Z,3.60
2018-12-02T09:09:21.784Z,3.10
2018-12-02T09:11:49.303Z,3.60
2018-12-02T09:14:16.873Z,3.47
2018-12-02T09:16:44.495Z,3.67
2018-12-02T09:19:11.950Z,3.40
2018-12-02T09:21:39.495Z,3.70
2018-12-02T09:24:07.321Z,3.17
2018-12-02T09:26:34.823Z,2.97
2018-12-02T09:29:02.270Z,3.20
2018-12-02T09:31:29.862Z,3.10
2018-12-02T09:33:57.329Z,3.60
2018-12-02T09:36:24.829Z,3.40
2018-12-02T09:38:52.465Z,3.30
2018-12-02T09:41:19.984Z,3.33
2018-12-02T09:43:47.471Z,3.20
2018-12-02T09:46:15.268Z,3.53
2018-12-02T09:48:42.683Z,3.07
2018-12-02T09:51:10.175Z,3.00
2018-12-02T09:53:37.834Z,2.93
2018-12-02T09:56:05.959Z,2.87
2018-12-02T09:58:33.488Z,3.27
2018-12-02T10:01:01.252Z,3.07
2018-12-02T10:03:28.756Z,2.90
2018-12-02T10:05:56.276Z,2.73
2018-12-02T10:08:23.943Z,3.27
2018-12-02T10:10:51.437Z,3.10
2018-12-02T10:13:20.574Z,3.20
2018-12-02T10:15:48.206Z,3.30
2018-12-02T10:18:15.700Z,3.17
2018-12-02T10:20:43.221Z,3.40
2018-12-02T10:23:11.090Z,2.90
2018-12-02T10:25:38.648Z,2.90
2018-12-02T10:28:06.738Z,3.23
2018-12-02T10:30:34.797Z,2.97
2018-12-02T10:33:02.299Z,3.30
2018-12-02T10:35:29.701Z,2.83
2018-12-02T10:37:57.349Z,3.20
2018-12-02T10:40:25.816Z,2.90
2018-12-02T10:42:53.336Z,3.00
2018-12-02T10:45:25.338Z,3.20
2018-12-02T10:47:54.814Z,3.27
2018-12-02T10:50:27.375Z,3.57
2018-12-02T10:52:57.036Z,3.40
2018-12-02T10:55:45.301Z,3.13
2018-12-02T10:58:17.081Z,3.30
2018-12-02T11:00:50.591Z,3.10
2018-12-02T11:03:18.007Z,2.87
2018-12-02T11:05:45.497Z,2.70
2018-12-02T11:08:13.266Z,2.67
2018-12-02T11:10:40.800Z,2.53
2018-12-02T11:13:08.389Z,2.90
2018-12-02T11:15:36.172Z,2.33
2018-12-02T11:18:03.975Z,2.80
2018-12-02T11:20:31.484Z,2.57
2018-12-02T11:22:59.199Z,3.00
2018-12-02T11:25:26.689Z,2.70
2018-12-02T11:27:54.167Z,2.30
2018-12-02T11:30:21.922Z,2.43
2018-12-02T11:32:49.451Z,2.90
2018-12-02T11:35:17.821Z,2.37
2018-12-02T11:37:46.017Z,3.10
2018-12-02T11:40:15.599Z,2.77
2018-12-02T11:42:43.063Z,3.17
2018-12-02T11:45:11.774Z,2.50
2018-12-02T11:47:39.736Z,2.60
2018-12-02T11:50:17.358Z,2.53
2018-12-02T11:52:44.969Z,2.10
2018-12-02T11:55:13.319Z,2.20
2018-12-02T11:57:41.002Z,2.37
2018-12-02T12:00:14.749Z,2.80
2018-12-02T12:02:42.395Z,2.30
2018-12-02T12:05:10.611Z,2.10
2018-12-02T12:07:38.508Z,2.43
2018-12-02T12:10:15.288Z,2.77
2018-12-02T12:12:42.831Z,2.40
2018-12-02T12:15:19.278Z,2.10
2018-12-02T12:17:47.293Z,2.30
2018-12-02T12:20:18.782Z,2.77
2018-12-02T12:22:46.318Z,2.40
2018-12-02T12:25:13.867Z,2.43
2018-12-02T12:27:41.499Z,2.60
2018-12-02T12:30:16.003Z,2.80
2018-12-02T12:32:43.550Z,3.03
2018-12-02T12:35:13.005Z,3.00
2018-12-02T12:37:40.519Z,3.50
2018-12-02T12:40:14.336Z,3.10
2018-12-02T12:43:13.852Z,3.60
2018-12-02T12:45:41.313Z,3.47
2018-12-02T12:48:08.799Z,2.63
2018-12-02T12:50:36.415Z,3.00
2018-12-02T12:53:04.188Z,2.93
2018-12-02T12:55:31.687Z,3.13
2018-12-02T12:57:59.314Z,3.27
2018-12-02T13:00:26.830Z,2.93
2018-12-02T13:02:54.519Z,2.70
2018-12-02T13:05:24.166Z,2.40
2018-12-02T13:07:52.024Z,2.40
2018-12-02T13:10:19.597Z,2.93
2018-12-02T13:12:47.142Z,3.47
2018-12-02T13:15:16.486Z,3.60
2018-12-02T13:17:51.260Z,3.20
2018-12-02T13:20:18.900Z,3.30
2018-12-02T13:22:46.423Z,3.43
2018-12-02T13:25:14.645Z,3.13
2018-12-02T13:27:43.079Z,2.87
2018-12-02T13:30:14.464Z,3.33
2018-12-02T13:32:42.174Z,3.07
2018-12-02T13:35:10.063Z,3.30
2018-12-02T13:37:37.582Z,2.73
2018-12-02T13:40:15.612Z,2.80
2018-12-02T13:42:45.351Z,2.97
2018-12-02T13:45:15.917Z,2.87
2018-12-02T13:47:43.430Z,2.73
2018-12-02T13:50:15.869Z,2.53
2018-12-02T13:52:43.661Z,2.60
2018-12-02T13:55:17.017Z,2.83
2018-12-02T13:57:44.921Z,3.10
2018-12-02T14:00:16.499Z,3.33
2018-12-02T14:02:44.985Z,3.30
2018-12-02T14:05:12.642Z,3.30
2018-12-02T14:07:40.158Z,3.80
2018-12-02T14:10:09.803Z,3.23
2018-12-02T14:12:37.328Z,2.80
2018-12-02T14:15:15.680Z,2.70
2018-12-02T14:17:44.550Z,2.80
2018-12-02T14:20:12.098Z,2.60
2018-12-02T14:22:39.641Z,2.67
2018-12-02T14:25:10.593Z,3.00
2018-12-02T14:27:38.439Z,3.50
2018-12-02T14:30:10.342Z,3.00
2018-12-02T14:32:37.843Z,3.23
2018-12-02T14:35:06.387Z,2.70
2018-12-02T14:37:33.920Z,2.40
2018-12-02T14:40:01.405Z,2.37
2018-12-02T14:42:28.907Z,2.13
2018-12-02T14:44:56.386Z,1.80
2018-12-02T14:47:23.906Z,2.30
2018-12-02T14:49:51.381Z,2.27
2018-12-02T14:52:19.132Z,2.27
2018-12-02T14:54:46.679Z,2.10
2018-12-02T14:57:14.129Z,1.70
2018-12-02T14:59:41.578Z,2.10
2018-12-02T15:02:09.085Z,1.90
2018-12-02T15:04:36.503Z,1.57
2018-12-02T15:07:04.357Z,2.20
2018-12-02T15:09:31.880Z,2.10
2018-12-02T15:11:59.444Z,2.77
2018-12-02T15:14:26.937Z,2.57
2018-12-02T15:16:54.446Z,2.77
2018-12-02T15:19:21.975Z,3.13
2018-12-02T15:21:49.520Z,2.60
2018-12-02T15:24:17.055Z,2.53
2018-12-02T15:26:44.556Z,2.70
2018-12-02T15:29:12.103Z,2.10
2018-12-02T15:31:39.622Z,2.33
2018-12-02T15:34:07.143Z,2.07
2018-12-02T15:36:34.672Z,2.00
2018-12-02T15:39:02.362Z,2.03
2018-12-02T15:41:29.858Z,2.33
2018-12-02T15:43:57.415Z,2.20
2018-12-02T15:46:24.960Z,2.20
2018-12-02T15:48:52.395Z,2.27
2018-12-02T15:51:19.944Z,2.53
2018-12-02T15:53:47.594Z,2.63
2018-12-02T15:56:15.056Z,2.53
2018-12-02T15:58:42.590Z,2.03
2018-12-02T16:01:10.256Z,3.27
2018-12-02T16:03:37.757Z,3.60
2018-12-02T16:06:05.457Z,3.23
2018-12-02T16:08:33.003Z,3.73
2018-12-02T16:11:00.491Z,3.30
2018-12-02T16:13:28.044Z,4.07
2018-12-02T16:15:55.490Z,3.80
2018-12-02T16:18:23.023Z,4.23
2018-12-02T16:20:52.676Z,3.77
2018-12-02T16:23:22.142Z,4.10
2018-12-02T16:25:49.713Z,3.40
2018-12-02T16:28:17.286Z,3.40
2018-12-02T16:30:44.899Z,3.03
2018-12-02T16:33:12.447Z,3.10
2018-12-02T16:35:39.976Z,3.53
2018-12-02T16:38:09.187Z,3.70
2018-12-02T16:40:36.742Z,3.70
2018-12-02T16:43:04.276Z,4.37
2018-12-02T16:45:31.743Z,4.30
2018-12-02T16:47:59.281Z,4.40
2018-12-02T16:50:29.034Z,4.70
2018-12-02T16:53:00.679Z,4.97
2018-12-02T16:55:30.591Z,4.90
2018-12-02T16:58:11.139Z,4.97
2018-12-02T17:00:48.882Z,4.70
2018-12-02T17:03:16.395Z,5.27
2018-12-02T17:05:43.900Z,5.57
2018-12-02T17:08:11.439Z,5.13
2018-12-02T17:10:39.087Z,4.63
2018-12-02T17:13:06.333Z,6.10
2018-12-02T17:16:36.441Z,5.33
2018-12-02T17:19:04.134Z,5.33
2018-12-02T17:21:31.691Z,4.73
2018-12-02T17:23:59.297Z,5.90
2018-12-02T17:26:26.819Z,5.23
2018-12-02T17:28:54.321Z,5.70
2018-12-02T17:31:24.540Z,5.60
2018-12-02T17:33:52.069Z,4.73
2018-12-02T17:36:19.661Z,5.20
2018-12-02T17:38:48.531Z,5.10
2018-12-02T17:41:16.145Z,4.93
2018-12-02T17:43:43.689Z,4.77
2018-12-02T17:46:11.244Z,5.20
2018-12-02T17:48:38.741Z,4.83
2018-12-02T17:51:07.033Z,5.07
2018-12-02T17:53:34.666Z,5.00
2018-12-02T17:56:02.188Z,4.27
2018-12-02T17:58:29.700Z,4.07
2018-12-02T18:00:57.190Z,4.87
2018-12-02T18:03:31.016Z,5.10
2018-12-02T18:05:58.496Z,4.63
2018-12-02T18:08:25.928Z,4.67
2018-12-02T18:10:53.700Z,5.43
2018-12-02T18:13:21.211Z,4.83
2018-12-02T18:15:48.728Z,5.10
2018-12-02T18:18:16.270Z,4.63
2018-12-02T18:20:43.759Z,4.40
2018-12-02T18:23:11.241Z,4.27
2018-12-02T18:25:38.717Z,4.27
2018-12-02T18:28:06.276Z,4.77
2018-12-02T18:30:33.807Z,4.33
2018-12-02T18:33:02.350Z,4.27
2018-12-02T18:35:37.265Z,4.40
2018-12-02T18:38:09.099Z,4.80
2018-12-02T18:40:37.367Z,4.73
2018-12-02T18:43:05.838Z,4.80
2018-12-02T18:45:33.317Z,4.70
2018-12-02T18:48:00.860Z,5.43
2018-12-02T18:50:28.415Z,5.20
2018-12-02T18:52:55.862Z,5.77
2018-12-02T18:55:23.330Z,5.73
2018-12-02T18:57:50.898Z,5.70
2018-12-02T19:00:23.863Z,5.60
2018-12-02T19:02:53.122Z,6.00
2018-12-02T19:05:20.540Z,6.10
2018-12-02T19:07:48.070Z,5.87
2018-12-02T19:10:17.447Z,5.90
2018-12-02T19:12:45.054Z,6.03
2018-12-02T19:15:13.610Z,5.47
2018-12-02T19:17:41.243Z,5.53
2018-12-02T19:20:12.104Z,5.67
2018-12-02T19:22:39.661Z,4.87
2018-12-02T19:25:09.593Z,4.50
2018-12-02T19:27:37.316Z,4.67
2018-12-02T19:30:08.383Z,4.47
2018-12-02T19:32:35.859Z,5.50
2018-12-02T19:35:03.854Z,5.43
2018-12-02T19:37:31.458Z,5.53
2018-12-02T19:39:58.946Z,5.53
2018-12-02T19:42:26.406Z,4.60
2018-12-02T19:44:53.904Z,4.97
2018-12-02T19:47:21.462Z,4.87
2018-12-02T19:49:48.888Z,5.30
2018-12-02T19:52:16.378Z,5.57
2018-12-02T19:54:43.918Z,5.03
2018-12-02T19:57:11.418Z,5.30
2018-12-02T19:59:38.916Z,5.47
2018-12-02T20:02:06.615Z,5.20
2018-12-02T20:04:34.167Z,4.93
2018-12-02T20:07:01.692Z,5.67
2018-12-02T20:09:29.208Z,5.43
2018-12-02T20:11:56.765Z,5.60
2018-12-02T20:14:24.356Z,6.17
2018-12-02T20:16:51.841Z,5.27
2018-12-02T20:21:25.746Z,5.80
2018-12-02T20:23:59.014Z,5.90
2018-12-02T20:26:26.535Z,5.80
2018-12-02T20:28:56.106Z,5.77
2018-12-02T20:31:25.364Z,5.67
2018-12-02T20:33:52.875Z,5.80
2018-12-02T20:36:20.404Z,5.43
2018-12-02T20:38:47.898Z,5.67
2018-12-02T20:41:15.376Z,5.30
2018-12-02T20:43:42.898Z,4.93
2018-12-02T20:46:40.943Z,5.30
2018-12-02T20:49:08.477Z,5.83
2018-12-02T20:51:36.009Z,5.50
2018-12-02T20:54:03.509Z,5.67
2018-12-02T20:56:31.004Z,6.77
2018-12-02T20:58:58.438Z,6.40
2018-12-02T21:01:25.900Z,6.40
2018-12-02T21:03:53.437Z,6.00
2018-12-02T21:06:21.530Z,5.20
2018-12-02T21:08:49.061Z,6.07
2018-12-02T21:11:16.700Z,5.07
2018-12-02T21:13:44.250Z,5.80
2018-12-02T21:16:11.937Z,5.87
2018-12-02T21:18:39.516Z,5.57
2018-12-02T21:21:06.982Z,4.97
2018-12-02T21:23:34.456Z,4.73
2018-12-02T21:26:02.452Z,5.53
2018-12-02T21:28:29.961Z,5.40
2018-12-02T21:30:57.483Z,5.03
2018-12-02T21:33:24.970Z,5.13
2018-12-02T21:35:52.672Z,5.47
2018-12-02T21:38:20.151Z,5.20
2018-12-02T21:40:47.613Z,4.33
2018-12-02T21:43:15.093Z,4.27
2018-12-02T21:45:42.593Z,4.27
2018-12-02T21:48:13.624Z,4.40
2018-12-02T21:50:41.336Z,4.60
2018-12-02T21:53:08.820Z,4.37
2018-12-02T21:55:36.325Z,4.43
2018-12-02T21:58:03.848Z,5.10
2018-12-02T22:00:36.950Z,5.60
2018-12-02T22:03:04.553Z,5.90
2018-12-02T22:05:32.042Z,5.90
2018-12-02T22:07:59.618Z,6.80
2018-12-02T22:10:30.033Z,5.73
2018-12-02T22:12:56.974Z,5.77
2018-12-02T22:15:24.459Z,6.97
2018-12-02T22:17:52.258Z,6.63
2018-12-02T22:20:19.787Z,6.60
2018-12-02T22:22:47.331Z,6.57
2018-12-02T22:25:16.529Z,6.43
2018-12-02T22:27:46.283Z,6.63
2018-12-02T22:30:14.887Z,6.57
2018-12-02T22:32:42.303Z,6.80
2018-12-02T22:35:11.601Z,6.40
2018-12-02T22:37:39.182Z,7.10
2018-12-02T22:40:09.771Z,7.07
2018-12-02T22:42:37.214Z,6.57
2018-12-02T22:45:08.281Z,6.67
2018-12-02T22:47:35.775Z,6.10
2018-12-02T22:50:03.441Z,6.93
2018-12-02T22:52:30.887Z,7.10
2018-12-02T22:54:58.390Z,6.13
2018-12-02T22:57:25.826Z,6.87
2018-12-02T22:59:53.351Z,7.07
2018-12-02T23:02:27.496Z,7.20
2018-12-02T23:04:55.004Z,7.73
2018-12-02T23:07:22.556Z,6.60
2018-12-02T23:09:50.029Z,6.93
2018-12-02T23:12:17.528Z,6.80
2018-12-02T23:14:45.152Z,6.47
2018-12-02T23:17:19.761Z,7.37
2018-12-02T23:19:47.501Z,7.20
2018-12-02T23:22:15.051Z,6.97
2018-12-02T23:24:42.538Z,7.27
2018-12-02T23:27:10.103Z,7.87
2018-12-02T23:29:37.708Z,7.33
2018-12-02T23:32:05.332Z,7.13
2018-12-02T23:34:32.827Z,6.70
2018-12-02T23:37:00.388Z,6.97
2018-12-02T23:39:27.887Z,6.40
2018-12-02T23:41:55.352Z,6.30
2018-12-02T23:44:22.833Z,5.80
2018-12-02T23:46:50.307Z,6.53
2018-12-02T23:49:17.834Z,7.13
2018-12-02T23:51:45.259Z,7.40
2018-12-02T23:54:12.730Z,7.27
2018-12-02T23:56:40.243Z,8.37
2018-12-02T23:59:07.771Z,7.73
